createdAt,value
2019-03-18T00:00:32.066Z,3.97
2019-03-18T00:03:00.769Z,3.70
2019-03-18T00:05:29.190Z,4.97
2019-03-18T00:07:57.525Z,4.63
2019-03-18T00:10:25.894Z,4.20
2019-03-18T00:12:54.131Z,4.43
2019-03-18T00:15:22.492Z,4.60
2019-03-18T00:17:50.833Z,4.10
2019-03-18T00:20:19.098Z,4.80
2019-03-18T00:22:50.121Z,4.63
2019-03-18T00:25:18.461Z,4.10
2019-03-18T00:27:48.424Z,4.27
2019-03-18T00:30:17.845Z,3.60
2019-03-18T00:32:47.017Z,3.57
2019-03-18T00:35:15.232Z,4.17
2019-03-18T00:37:43.593Z,3.50
2019-03-18T00:40:36.698Z,3.70
2019-03-18T00:43:05.693Z,3.77
2019-03-18T00:45:33.969Z,4.00
2019-03-18T00:48:02.249Z,3.37
2019-03-18T00:50:30.520Z,3.13
2019-03-18T00:52:58.764Z,2.97
2019-03-18T00:55:27.077Z,3.20
2019-03-18T00:57:55.415Z,3.63
2019-03-18T01:00:23.692Z,3.30
2019-03-18T01:02:51.987Z,3.50
2019-03-18T01:05:20.350Z,3.70
2019-03-18T01:07:48.605Z,2.73
2019-03-18T01:10:17.831Z,3.03
2019-03-18T01:12:46.295Z,2.90
2019-03-18T01:15:26.876Z,3.30
2019-03-18T01:17:44.614Z,3.00
2019-03-18T01:20:13.838Z,2.90
2019-03-18T01:22:42.111Z,3.50
2019-03-18T01:25:11.026Z,3.20
2019-03-18T01:27:39.282Z,3.27
2019-03-18T01:30:09.788Z,3.63
2019-03-18T01:32:38.104Z,3.10
2019-03-18T01:35:09.156Z,3.43
2019-03-18T01:37:37.438Z,3.43
2019-03-18T01:40:10.684Z,4.03
2019-03-18T01:42:38.966Z,3.13
2019-03-18T01:45:07.873Z,3.70
2019-03-18T01:47:36.273Z,4.03
2019-03-18T01:50:06.732Z,3.57
2019-03-18T01:52:34.992Z,3.67
2019-03-18T01:55:04.219Z,4.00
2019-03-18T01:57:32.478Z,4.43
2019-03-18T02:00:01.041Z,4.87
2019-03-18T02:02:29.274Z,4.60
2019-03-18T02:04:57.613Z,4.30
2019-03-18T02:07:25.888Z,4.00
2019-03-18T02:09:54.149Z,4.60
2019-03-18T02:12:22.438Z,4.30
2019-03-18T02:14:50.674Z,5.37
2019-03-18T02:17:18.963Z,4.83
2019-03-18T02:19:47.216Z,5.00
2019-03-18T02:22:15.500Z,5.80
2019-03-18T02:24:43.756Z,5.33
2019-03-18T02:27:12.085Z,5.60
2019-03-18T02:29:40.351Z,6.40
2019-03-18T02:32:08.613Z,6.10
2019-03-18T02:34:36.865Z,7.00
2019-03-18T02:37:05.155Z,6.43
2019-03-18T02:39:33.395Z,6.20
2019-03-18T02:42:01.735Z,5.97
2019-03-18T02:44:30.000Z,5.70
2019-03-18T02:46:58.330Z,6.27
2019-03-18T02:49:26.579Z,6.83
2019-03-18T02:51:54.843Z,6.00
2019-03-18T02:54:23.118Z,5.30
2019-03-18T02:56:51.375Z,6.00
2019-03-18T02:59:19.624Z,6.03
2019-03-18T03:01:47.901Z,6.10
2019-03-18T03:04:16.146Z,5.43
2019-03-18T03:06:44.399Z,6.17
2019-03-18T03:09:12.663Z,5.70
2019-03-18T03:11:40.930Z,6.33
2019-03-18T03:14:09.185Z,6.17
2019-03-18T03:16:37.455Z,6.00
2019-03-18T03:19:05.735Z,6.40
2019-03-18T03:21:34.034Z,5.43
2019-03-18T03:24:02.297Z,6.10
2019-03-18T03:26:30.544Z,6.97
2019-03-18T03:28:58.801Z,5.67
2019-03-18T03:31:27.076Z,6.73
2019-03-18T03:33:55.337Z,6.10
2019-03-18T03:36:23.604Z,6.27
2019-03-18T03:38:51.874Z,6.00
2019-03-18T03:41:20.196Z,6.50
2019-03-18T03:43:48.397Z,6.47
2019-03-18T03:46:16.649Z,7.10
2019-03-18T03:48:44.926Z,7.43
2019-03-18T03:51:13.180Z,6.90
2019-03-18T03:53:41.516Z,6.80
2019-03-18T03:56:09.936Z,6.60
2019-03-18T03:58:38.269Z,7.07
2019-03-18T04:01:06.538Z,6.47
2019-03-18T04:03:38.774Z,6.60
2019-03-18T04:06:04.891Z,6.67
2019-03-18T04:08:33.418Z,6.37
2019-03-18T04:11:01.706Z,7.40
2019-03-18T04:13:29.977Z,6.33
2019-03-18T04:15:58.264Z,7.20
2019-03-18T04:18:26.529Z,5.43
2019-03-18T04:20:54.804Z,7.97
2019-03-18T04:23:23.062Z,7.13
2019-03-18T04:25:51.493Z,7.30
2019-03-18T04:28:19.764Z,7.33
2019-03-18T04:30:48.049Z,7.53
2019-03-18T04:33:16.329Z,8.10
2019-03-18T04:35:44.566Z,7.80
2019-03-18T04:38:12.844Z,7.60
2019-03-18T04:40:41.110Z,8.13
2019-03-18T04:43:09.358Z,8.43
2019-03-18T04:45:37.627Z,7.87
2019-03-18T04:48:05.891Z,7.70
2019-03-18T04:50:34.170Z,8.27
2019-03-18T04:53:02.439Z,8.67
2019-03-18T04:55:30.712Z,8.60
2019-03-18T04:57:58.995Z,8.20
2019-03-18T05:00:27.239Z,8.77
2019-03-18T05:02:55.493Z,8.00
2019-03-18T05:05:23.830Z,7.60
2019-03-18T05:07:52.016Z,7.80
2019-03-18T05:10:20.294Z,8.40
2019-03-18T05:12:48.584Z,8.20
2019-03-18T05:15:16.875Z,8.50
2019-03-18T05:17:45.129Z,8.10
2019-03-18T05:20:13.416Z,7.80
2019-03-18T05:22:41.676Z,8.40
2019-03-18T05:25:10.655Z,8.17
2019-03-18T05:27:38.882Z,8.50
2019-03-18T05:30:09.772Z,8.53
2019-03-18T05:32:38.030Z,7.50
2019-03-18T05:35:06.778Z,7.63
2019-03-18T05:37:35.037Z,7.67
2019-03-18T05:40:04.944Z,8.13
2019-03-18T05:42:33.208Z,7.60
2019-03-18T05:45:01.494Z,7.97
2019-03-18T05:47:38.495Z,9.13
2019-03-18T05:49:59.748Z,9.17
2019-03-18T05:52:28.012Z,9.87
2019-03-18T05:54:56.272Z,8.30
2019-03-18T05:57:26.090Z,8.07
2019-03-18T05:59:54.481Z,8.80
2019-03-18T06:02:22.763Z,8.50
2019-03-18T06:04:51.014Z,8.10
2019-03-18T06:07:19.272Z,7.70
2019-03-18T06:09:47.554Z,7.60
2019-03-18T06:12:15.827Z,7.63
2019-03-18T06:14:44.084Z,8.63
2019-03-18T06:17:12.336Z,8.40
2019-03-18T06:19:40.598Z,7.00
2019-03-18T06:22:08.862Z,8.03
2019-03-18T06:24:37.132Z,7.97
2019-03-18T06:27:05.394Z,7.30
2019-03-18T06:29:33.688Z,7.43
2019-03-18T06:32:01.951Z,7.30
2019-03-18T06:34:30.201Z,7.00
2019-03-18T06:36:58.476Z,7.10
2019-03-18T06:39:26.711Z,6.63
2019-03-18T06:41:55.061Z,7.00
2019-03-18T06:44:23.404Z,6.40
2019-03-18T06:46:51.653Z,6.07
2019-03-18T06:49:19.920Z,6.80
2019-03-18T06:51:48.174Z,6.83
2019-03-18T06:54:16.538Z,6.90
2019-03-18T06:56:44.829Z,7.80
2019-03-18T06:59:13.122Z,7.63
2019-03-18T07:01:41.384Z,6.80
2019-03-18T07:04:09.645Z,5.40
2019-03-18T07:06:37.909Z,6.30
2019-03-18T07:09:06.863Z,6.20
2019-03-18T07:11:35.145Z,9.27
2019-03-18T07:14:03.487Z,6.53
2019-03-18T07:16:31.744Z,5.43
2019-03-18T07:19:00.008Z,5.97
2019-03-18T07:21:28.294Z,5.30
2019-03-18T07:23:56.581Z,5.63
2019-03-18T07:26:24.831Z,5.10
2019-03-18T07:28:53.087Z,6.07
2019-03-18T07:31:21.345Z,5.93
2019-03-18T07:33:49.600Z,5.07
2019-03-18T07:36:17.865Z,5.40
2019-03-18T07:38:46.115Z,5.10
2019-03-18T07:41:14.430Z,6.00
2019-03-18T07:43:42.653Z,5.80
2019-03-18T07:46:10.946Z,5.70
2019-03-18T07:48:39.196Z,6.07
2019-03-18T07:51:07.451Z,5.77
2019-03-18T07:53:35.717Z,5.80
2019-03-18T07:56:04.907Z,5.60
2019-03-18T07:58:33.172Z,6.30
2019-03-18T08:01:01.536Z,4.97
2019-03-18T08:03:29.977Z,6.00
2019-03-18T08:05:58.271Z,5.40
2019-03-18T08:08:26.640Z,4.73
2019-03-18T08:10:54.941Z,5.40
2019-03-18T08:13:23.185Z,4.70
2019-03-18T08:15:51.446Z,4.50
2019-03-18T08:18:19.712Z,5.47
2019-03-18T08:20:47.980Z,4.00
2019-03-18T08:23:16.248Z,3.87
2019-03-18T08:25:44.589Z,4.00
2019-03-18T08:28:12.793Z,3.70
2019-03-18T08:30:41.061Z,3.77
2019-03-18T08:33:09.322Z,3.50
2019-03-18T08:35:37.575Z,2.87
2019-03-18T08:38:05.855Z,3.27
2019-03-18T08:40:34.132Z,3.77
2019-03-18T08:43:02.418Z,3.83
2019-03-18T08:45:30.718Z,4.03
2019-03-18T08:47:58.997Z,4.13
2019-03-18T08:50:27.281Z,3.87
2019-03-18T08:52:55.541Z,3.60
2019-03-18T08:55:23.904Z,3.93
2019-03-18T08:57:52.151Z,3.83
2019-03-18T09:00:20.421Z,3.83
2019-03-18T09:02:48.699Z,5.20
2019-03-18T09:05:16.976Z,4.20
2019-03-18T09:07:45.231Z,4.50
2019-03-18T09:10:15.507Z,4.60
2019-03-18T09:12:43.788Z,3.60
2019-03-18T09:15:12.673Z,3.90
2019-03-18T09:17:40.977Z,3.73
2019-03-18T09:20:16.942Z,3.70
2019-03-18T09:22:45.318Z,3.70
2019-03-18T09:25:13.633Z,3.43
2019-03-18T09:27:41.952Z,3.17
2019-03-18T09:30:17.879Z,3.83
2019-03-18T09:32:46.200Z,3.90
2019-03-18T09:35:14.481Z,3.60
2019-03-18T09:37:42.746Z,3.67
2019-03-18T09:40:13.301Z,3.93
2019-03-18T09:42:41.646Z,2.90
2019-03-18T09:45:15.891Z,3.60
2019-03-18T09:47:44.177Z,3.70
2019-03-18T09:50:13.280Z,3.40
2019-03-18T09:52:41.537Z,4.10
2019-03-18T09:55:10.084Z,3.70
2019-03-18T09:57:38.356Z,3.60
2019-03-18T10:00:12.239Z,4.10
2019-03-18T10:02:40.144Z,4.17
2019-03-18T10:05:08.779Z,3.83
2019-03-18T10:07:37.038Z,4.17
2019-03-18T10:10:08.245Z,4.53
2019-03-18T10:12:36.586Z,5.23
2019-03-18T10:15:08.013Z,4.33
2019-03-18T10:17:36.277Z,4.97
2019-03-18T10:20:06.721Z,4.00
2019-03-18T10:22:36.140Z,4.17
2019-03-18T10:25:06.273Z,4.63
2019-03-18T10:27:37.411Z,3.90
2019-03-18T10:30:07.158Z,3.80
2019-03-18T10:32:35.434Z,2.90
2019-03-18T10:35:05.198Z,3.47
2019-03-18T10:37:33.487Z,3.07
2019-03-18T10:40:01.947Z,3.57
2019-03-18T10:42:30.394Z,3.30
2019-03-18T10:44:58.670Z,3.97
2019-03-18T10:47:26.984Z,3.40
2019-03-18T10:49:55.269Z,3.60
2019-03-18T10:52:23.519Z,3.80
2019-03-18T10:54:51.792Z,3.30
2019-03-18T10:57:20.056Z,2.87
2019-03-18T10:59:48.309Z,3.57
2019-03-18T11:02:16.574Z,3.77
2019-03-18T11:04:44.837Z,4.20
2019-03-18T11:07:13.112Z,4.00
2019-03-18T11:09:41.363Z,4.50
2019-03-18T11:12:09.631Z,4.03
2019-03-18T11:14:37.911Z,4.37
2019-03-18T11:17:06.247Z,5.50
2019-03-18T11:19:34.540Z,3.83
2019-03-18T11:22:02.836Z,4.70
2019-03-18T11:24:31.202Z,4.67
2019-03-18T11:26:59.479Z,4.97
2019-03-18T11:29:27.735Z,4.30
2019-03-18T11:31:56.018Z,4.77
2019-03-18T11:34:24.268Z,4.03
2019-03-18T11:36:52.556Z,3.60
2019-03-18T11:39:20.808Z,3.20
2019-03-18T11:41:49.101Z,3.40
2019-03-18T11:44:17.381Z,2.90
2019-03-18T11:46:45.677Z,2.90
2019-03-18T11:49:13.955Z,2.80
2019-03-18T11:51:42.220Z,2.80
2019-03-18T11:54:10.500Z,2.60
2019-03-18T11:56:38.769Z,2.27
2019-03-18T11:59:07.095Z,2.50
2019-03-18T12:01:35.367Z,1.53
2019-03-18T12:04:03.725Z,1.53
2019-03-18T12:06:31.988Z,1.67
2019-03-18T12:09:00.300Z,1.70
2019-03-18T12:11:28.577Z,2.40
2019-03-18T12:13:56.834Z,1.67
2019-03-18T12:16:25.096Z,1.40
2019-03-18T12:18:53.372Z,1.37
2019-03-18T12:21:21.631Z,1.77
2019-03-18T12:23:49.905Z,1.40
2019-03-18T12:26:18.188Z,1.73
2019-03-18T12:28:46.505Z,1.50
2019-03-18T12:31:14.761Z,1.40
2019-03-18T12:33:43.058Z,1.40
2019-03-18T12:36:11.335Z,1.90
2019-03-18T12:38:39.635Z,1.43
2019-03-18T12:41:07.914Z,1.70
2019-03-18T12:43:36.213Z,1.40
2019-03-18T12:46:04.757Z,1.70
2019-03-18T12:48:33.008Z,1.60
2019-03-18T12:51:01.275Z,1.50
2019-03-18T12:53:29.556Z,1.93
2019-03-18T12:55:57.833Z,2.00
2019-03-18T12:58:26.125Z,1.70
2019-03-18T13:00:54.370Z,1.40
2019-03-18T13:03:22.646Z,1.53
2019-03-18T13:05:50.994Z,1.63
2019-03-18T13:08:20.961Z,1.53
2019-03-18T13:10:49.477Z,1.50
2019-03-18T13:13:17.746Z,1.90
2019-03-18T13:15:46.035Z,2.17
2019-03-18T13:18:14.316Z,1.80
2019-03-18T13:20:42.542Z,1.50
2019-03-18T13:23:10.845Z,1.63
2019-03-18T13:25:39.096Z,1.27
2019-03-18T13:28:07.356Z,1.13
2019-03-18T13:30:35.761Z,1.40
2019-03-18T13:33:04.026Z,1.50
2019-03-18T13:35:32.300Z,1.60
2019-03-18T13:38:00.581Z,1.37
2019-03-18T13:40:28.923Z,1.63
2019-03-18T13:42:57.246Z,1.53
2019-03-18T13:45:25.514Z,1.37
2019-03-18T13:47:55.412Z,1.60
2019-03-18T13:50:23.790Z,1.37
2019-03-18T13:52:52.087Z,1.40
2019-03-18T13:55:20.413Z,1.37
2019-03-18T13:57:48.728Z,0.83
2019-03-18T14:00:18.230Z,1.27
2019-03-18T14:02:46.570Z,1.50
2019-03-18T14:05:14.921Z,1.10
2019-03-18T14:07:43.248Z,1.60
2019-03-18T14:10:16.450Z,1.63
2019-03-18T14:12:44.866Z,1.60
2019-03-18T14:15:18.591Z,1.70
2019-03-18T14:17:46.924Z,1.50
2019-03-18T14:20:16.937Z,1.20
2019-03-18T14:22:45.210Z,1.23
2019-03-18T14:25:13.851Z,1.00
2019-03-18T14:27:42.114Z,1.27
2019-03-18T14:30:18.439Z,1.00
2019-03-18T14:32:46.685Z,0.90
2019-03-18T14:35:15.057Z,1.43
2019-03-18T14:37:43.400Z,1.10
2019-03-18T14:40:16.652Z,0.70
2019-03-18T14:42:44.900Z,0.80
2019-03-18T14:45:17.898Z,1.10
2019-03-18T14:47:48.451Z,1.00
2019-03-18T14:50:17.976Z,0.97
2019-03-18T14:52:46.248Z,1.10
2019-03-18T14:55:15.692Z,1.30
2019-03-18T14:57:43.989Z,1.27
2019-03-18T15:00:17.913Z,1.20
2019-03-18T15:02:46.256Z,1.30
2019-03-18T15:05:15.663Z,1.27
2019-03-18T15:07:43.957Z,1.40
2019-03-18T15:10:17.125Z,1.20
2019-03-18T15:12:45.389Z,1.63
2019-03-18T15:15:15.517Z,1.20
2019-03-18T15:17:43.770Z,1.20
2019-03-18T15:20:13.890Z,1.50
2019-03-18T15:22:42.160Z,1.93
2019-03-18T15:25:16.264Z,1.90
2019-03-18T15:27:44.616Z,1.90
2019-03-18T15:30:15.465Z,1.63
2019-03-18T15:32:43.745Z,1.20
2019-03-18T15:35:12.740Z,1.27
2019-03-18T15:37:40.991Z,0.90
2019-03-18T15:40:12.378Z,1.20
2019-03-18T15:42:46.674Z,1.30
2019-03-18T15:45:20.003Z,1.30
2019-03-18T15:47:48.263Z,1.33
2019-03-18T15:50:17.989Z,1.60
2019-03-18T15:52:50.424Z,1.00
2019-03-18T15:55:18.952Z,1.00
2019-03-18T15:57:47.290Z,1.20
2019-03-18T16:00:21.658Z,0.90
2019-03-18T16:02:49.932Z,1.17
2019-03-18T16:05:18.238Z,1.37
2019-03-18T16:07:46.467Z,1.30
2019-03-18T16:10:19.032Z,1.60
2019-03-18T16:12:47.322Z,1.70
2019-03-18T16:15:16.506Z,1.50
2019-03-18T16:17:44.845Z,1.20
2019-03-18T16:20:15.627Z,1.77
2019-03-18T16:22:43.918Z,2.33
2019-03-18T16:25:12.246Z,1.70
2019-03-18T16:27:40.519Z,2.53
2019-03-18T16:30:14.173Z,1.93
2019-03-18T16:32:42.510Z,2.37
2019-03-18T16:35:15.733Z,4.00
2019-03-18T16:37:42.633Z,1.93
2019-03-18T16:40:20.056Z,1.60
2019-03-18T16:42:48.407Z,2.20
2019-03-18T16:45:17.708Z,1.87
2019-03-18T16:47:45.980Z,2.40
2019-03-18T16:50:25.661Z,9.70
2019-03-18T16:52:53.913Z,10.70
2019-03-18T16:55:22.165Z,7.20
2019-03-18T16:57:50.435Z,3.43
2019-03-18T17:00:20.539Z,3.07
2019-03-18T17:02:48.815Z,1.87
2019-03-18T17:05:17.111Z,2.77
2019-03-18T17:07:45.395Z,2.00
2019-03-18T17:10:15.538Z,1.93
2019-03-18T17:12:43.874Z,2.50
2019-03-18T17:15:16.204Z,2.10
2019-03-18T17:17:44.494Z,2.00
2019-03-18T17:20:14.114Z,2.30
2019-03-18T17:22:48.880Z,1.77
2019-03-18T17:25:17.952Z,1.77
2019-03-18T17:27:46.229Z,2.40
2019-03-18T17:30:19.706Z,2.50
2019-03-18T17:32:48.855Z,2.00
2019-03-18T17:35:17.157Z,2.33
2019-03-18T17:37:45.970Z,1.93
2019-03-18T17:40:18.887Z,1.97
2019-03-18T17:42:47.197Z,1.70
2019-03-18T17:45:18.735Z,2.00
2019-03-18T17:47:47.096Z,1.80
2019-03-18T17:50:21.631Z,1.97
2019-03-18T17:53:01.547Z,1.47
2019-03-18T17:55:19.948Z,1.80
2019-03-18T17:57:48.306Z,1.70
2019-03-18T18:00:24.863Z,1.97
2019-03-18T18:02:53.268Z,2.10
2019-03-18T18:05:21.582Z,1.60
2019-03-18T18:07:49.842Z,1.80
2019-03-18T18:10:18.165Z,2.00
2019-03-18T18:12:46.437Z,2.00
2019-03-18T18:15:14.836Z,2.70
2019-03-18T18:17:43.136Z,2.27
2019-03-18T18:20:15.544Z,3.40
2019-03-18T18:22:43.805Z,2.20
2019-03-18T18:25:14.021Z,2.10
2019-03-18T18:27:42.259Z,2.13
2019-03-18T18:30:17.580Z,2.00
2019-03-18T18:32:45.837Z,2.40
2019-03-18T18:35:14.211Z,2.40
2019-03-18T18:37:42.463Z,2.23
2019-03-18T18:40:13.869Z,2.40
2019-03-18T18:42:42.135Z,2.73
2019-03-18T18:45:12.064Z,2.50
2019-03-18T18:47:40.327Z,2.27
2019-03-18T18:50:12.944Z,2.40
2019-03-18T18:52:41.273Z,3.17
2019-03-18T18:55:11.383Z,2.10
2019-03-18T18:57:39.645Z,2.33
2019-03-18T19:00:24.573Z,2.87
2019-03-18T19:02:52.884Z,3.20
2019-03-18T19:05:21.241Z,3.27
2019-03-18T19:07:49.522Z,2.27
2019-03-18T19:10:21.546Z,2.47
2019-03-18T19:12:49.810Z,3.00
2019-03-18T19:15:31.634Z,2.80
2019-03-18T19:17:59.915Z,2.40
2019-03-18T19:20:28.190Z,2.83
2019-03-18T19:22:56.507Z,2.70
2019-03-18T19:25:24.763Z,2.40
2019-03-18T19:27:53.187Z,2.60
2019-03-18T19:30:23.184Z,2.90
2019-03-18T19:32:51.530Z,2.57
2019-03-18T19:35:19.881Z,2.80
2019-03-18T19:37:48.154Z,2.70
2019-03-18T19:40:20.493Z,2.90
2019-03-18T19:42:48.800Z,2.53
2019-03-18T19:45:17.254Z,2.87
2019-03-18T19:47:45.762Z,2.67
2019-03-18T19:50:16.937Z,2.53
2019-03-18T19:52:45.211Z,2.30
2019-03-18T19:55:14.271Z,2.53
2019-03-18T19:57:42.626Z,3.90
2019-03-18T20:00:28.068Z,3.07
2019-03-18T20:02:56.407Z,3.00
2019-03-18T20:05:24.893Z,3.97
2019-03-18T20:07:53.199Z,3.20
2019-03-18T20:10:22.157Z,2.90
2019-03-18T20:12:50.462Z,2.03
2019-03-18T20:15:19.592Z,2.37
2019-03-18T20:17:47.916Z,2.40
2019-03-18T20:20:20.642Z,2.30
2019-03-18T20:22:48.910Z,2.63
2019-03-18T20:25:17.282Z,2.70
2019-03-18T20:27:45.631Z,2.43
2019-03-18T20:30:21.753Z,3.10
2019-03-18T20:32:50.077Z,3.20
2019-03-18T20:35:28.872Z,2.90
2019-03-18T20:37:57.125Z,3.00
2019-03-18T20:40:25.484Z,2.63
2019-03-18T20:42:53.740Z,2.80
2019-03-18T20:45:26.061Z,3.30
2019-03-18T20:47:54.334Z,2.87
2019-03-18T20:50:23.579Z,2.90
2019-03-18T20:52:51.917Z,2.73
2019-03-18T20:55:20.330Z,2.83
2019-03-18T20:57:48.803Z,3.33
2019-03-18T21:00:23.498Z,2.80
2019-03-18T21:02:51.937Z,3.10
2019-03-18T21:05:20.900Z,3.10
2019-03-18T21:07:49.270Z,3.20
2019-03-18T21:10:19.680Z,3.33
2019-03-18T21:12:48.003Z,3.10
2019-03-18T21:15:16.995Z,3.53
2019-03-18T21:17:45.357Z,2.87
2019-03-18T21:20:24.950Z,2.73
2019-03-18T21:22:53.216Z,2.70
2019-03-18T21:25:21.492Z,2.70
2019-03-18T21:27:49.757Z,2.97
2019-03-18T21:30:24.234Z,2.80
2019-03-18T21:32:52.559Z,2.50
2019-03-18T21:35:20.839Z,2.53
2019-03-18T21:37:49.084Z,2.53
2019-03-18T21:40:20.879Z,3.60
2019-03-18T21:42:49.231Z,2.60
2019-03-18T21:45:24.258Z,2.80
2019-03-18T21:47:52.915Z,3.03
2019-03-18T21:50:21.213Z,2.70
2019-03-18T21:52:49.613Z,3.23
2019-03-18T21:55:18.036Z,2.77
2019-03-18T21:57:46.381Z,2.50
2019-03-18T22:00:17.817Z,3.00
2019-03-18T22:02:46.177Z,3.33
2019-03-18T22:05:14.828Z,2.73
2019-03-18T22:07:43.098Z,2.90
2019-03-18T22:10:13.772Z,3.20
2019-03-18T22:12:42.051Z,3.50
2019-03-18T22:15:12.218Z,5.30
2019-03-18T22:17:40.496Z,4.17
2019-03-18T22:20:11.709Z,2.90
2019-03-18T22:22:39.976Z,3.67
2019-03-18T22:25:10.603Z,3.17
2019-03-18T22:27:38.893Z,2.90
2019-03-18T22:30:09.868Z,2.50
2019-03-18T22:32:38.206Z,3.03
2019-03-18T22:35:07.858Z,2.90
2019-03-18T22:37:36.536Z,3.03
2019-03-18T22:40:12.898Z,3.17
2019-03-18T22:42:41.263Z,2.63
2019-03-18T22:45:16.767Z,3.20
2019-03-18T22:47:45.132Z,3.10
2019-03-18T22:50:14.133Z,2.50
2019-03-18T22:52:42.489Z,3.13
2019-03-18T22:55:11.695Z,2.37
2019-03-18T22:57:40.132Z,2.70
2019-03-18T23:00:22.609Z,2.33
2019-03-18T23:02:50.945Z,2.57
2019-03-18T23:05:19.215Z,2.00
2019-03-18T23:07:47.471Z,2.50
2019-03-18T23:10:15.775Z,2.50
2019-03-18T23:12:44.028Z,2.50
2019-03-18T23:15:12.284Z,2.07
2019-03-18T23:17:40.614Z,2.30
2019-03-18T23:20:09.257Z,2.40
2019-03-18T23:22:37.599Z,2.63
2019-03-18T23:25:08.071Z,2.47
2019-03-18T23:27:36.571Z,2.90
2019-03-18T23:30:08.035Z,2.50
2019-03-18T23:32:36.347Z,3.00
2019-03-18T23:35:06.068Z,2.67
2019-03-18T23:37:34.310Z,2.53
2019-03-18T23:40:02.639Z,2.30
2019-03-18T23:42:30.971Z,2.80
2019-03-18T23:44:59.246Z,2.40
2019-03-18T23:47:27.539Z,2.40
2019-03-18T23:49:55.821Z,2.73
2019-03-18T23:52:24.105Z,2.60
2019-03-18T23:54:52.382Z,2.53
2019-03-18T23:57:20.918Z,2.60
2019-03-18T23:59:49.260Z,3.00
